createdAt,value
2018-04-26T05:36:56.267Z,3.63
2018-04-26T05:39:21.937Z,2.90
2018-04-26T05:41:48.100Z,2.60
2018-04-26T05:44:14.110Z,2.90
2018-04-26T05:46:40.120Z,2.60
2018-04-26T05:49:05.730Z,2.40
2018-04-26T05:51:32.061Z,2.67
2018-04-26T05:53:57.690Z,2.83
2018-04-26T05:56:23.281Z,2.17
2018-04-26T05:58:49.134Z,2.00
2018-04-26T06:01:14.715Z,2.70
2018-04-26T06:03:40.421Z,2.63
2018-04-26T06:06:06.467Z,2.60
2018-04-26T06:08:32.401Z,2.10
2018-04-26T06:10:58.172Z,2.50
2018-04-26T06:13:23.819Z,2.17
2018-04-26T06:15:49.489Z,2.50
2018-04-26T06:18:15.667Z,2.00
2018-04-26T06:20:41.248Z,2.07
2018-04-26T06:23:06.827Z,2.40
2018-04-26T06:25:32.630Z,2.13
2018-04-26T06:27:58.194Z,2.00
2018-04-26T06:30:23.867Z,2.37
2018-04-26T06:32:49.880Z,1.87
2018-04-26T06:35:15.555Z,1.90
2018-04-26T06:37:41.186Z,2.20
2018-04-26T06:40:07.066Z,1.60
2018-04-26T06:42:32.742Z,1.80
2018-04-26T06:44:58.318Z,1.80
2018-04-26T06:47:24.096Z,1.60
2018-04-26T06:49:49.716Z,1.70
2018-04-26T06:52:15.607Z,1.63
2018-04-26T06:54:41.380Z,1.70
2018-04-26T06:57:07.014Z,1.87
2018-04-26T06:59:32.596Z,2.20
2018-04-26T07:01:58.349Z,2.10
2018-04-26T07:04:23.957Z,2.80
2018-04-26T07:06:49.588Z,1.70
2018-04-26T07:09:16.381Z,1.83
2018-04-26T07:11:42.023Z,1.80
2018-04-26T07:14:07.632Z,1.90
2018-04-26T07:16:33.668Z,2.10
2018-04-26T07:18:59.298Z,1.93
2018-04-26T07:21:24.857Z,1.67
2018-04-26T07:23:50.629Z,1.80
2018-04-26T07:26:16.239Z,1.80
2018-04-26T07:28:41.810Z,2.13
2018-04-26T07:31:07.701Z,1.60
2018-04-26T07:33:33.261Z,1.80
2018-04-26T07:35:58.826Z,1.90
2018-04-26T07:38:24.609Z,1.43
2018-04-26T07:40:50.494Z,1.87
2018-04-26T07:43:16.126Z,2.20
2018-04-26T07:45:42.216Z,1.80
2018-04-26T07:48:07.811Z,1.90
2018-04-26T07:50:33.422Z,1.60
2018-04-26T07:52:59.329Z,2.07
2018-04-26T07:55:24.969Z,1.83
2018-04-26T07:57:50.665Z,1.90
2018-04-26T08:00:16.512Z,1.97
2018-04-26T08:02:42.107Z,2.00
2018-04-26T08:05:07.778Z,1.73
2018-04-26T08:07:33.782Z,1.80
2018-04-26T08:09:59.340Z,2.67
2018-04-26T08:12:24.921Z,1.70
2018-04-26T08:14:50.602Z,2.07
2018-04-26T08:17:16.287Z,2.17
2018-04-26T08:19:41.941Z,2.67
2018-04-26T08:22:07.976Z,2.00
2018-04-26T08:24:33.722Z,2.85
2018-04-26T08:26:59.339Z,2.90
2018-04-26T08:29:25.027Z,2.00
2018-04-26T08:31:50.805Z,2.40
2018-04-26T08:34:16.553Z,2.17
2018-04-26T08:36:42.173Z,2.13
2018-04-26T08:39:07.948Z,2.80
2018-04-26T08:41:33.502Z,2.40
2018-04-26T08:43:59.076Z,2.53
2018-04-26T08:46:24.798Z,1.80
2018-04-26T08:48:50.376Z,2.00
2018-04-26T08:51:16.011Z,1.77
2018-04-26T08:53:42.057Z,1.80
2018-04-26T08:56:07.658Z,2.00
2018-04-26T08:58:33.543Z,2.10
2018-04-26T09:00:59.222Z,1.67
2018-04-26T09:03:24.834Z,2.17
2018-04-26T09:05:50.401Z,2.17
2018-04-26T09:08:16.151Z,1.57
2018-04-26T09:10:41.794Z,1.70
2018-04-26T09:13:07.418Z,1.80
2018-04-26T09:15:33.316Z,1.70
2018-04-26T09:17:59.106Z,1.57
2018-04-26T09:20:24.718Z,1.47
2018-04-26T09:22:50.797Z,2.37
2018-04-26T09:25:16.397Z,1.60
2018-04-26T09:27:41.963Z,1.83
2018-04-26T09:30:07.748Z,1.67
2018-04-26T09:32:33.303Z,1.70
2018-04-26T09:34:58.857Z,1.67
2018-04-26T09:37:24.669Z,1.40
2018-04-26T09:39:50.363Z,1.80
2018-04-26T09:42:15.977Z,1.63
2018-04-26T09:44:42.053Z,1.40
2018-04-26T09:47:07.639Z,1.40
2018-04-26T09:49:33.252Z,1.30
2018-04-26T09:52:00.426Z,1.10
2018-04-26T09:54:26.256Z,1.50
2018-04-26T09:56:51.830Z,1.80
2018-04-26T09:59:19.237Z,1.47
2018-04-26T10:01:44.923Z,1.50
2018-04-26T10:04:16.335Z,1.57
2018-04-26T10:07:01.919Z,2.17
2018-04-26T10:09:27.638Z,1.33
2018-04-26T10:11:53.269Z,1.47
2018-04-26T10:14:19.030Z,1.30
2018-04-26T10:16:44.602Z,1.43
2018-04-26T10:19:10.257Z,1.57
2018-04-26T10:21:36.046Z,1.70
2018-04-26T10:24:01.802Z,1.37
2018-04-26T10:26:27.436Z,1.80
2018-04-26T10:28:53.004Z,1.60
2018-04-26T10:31:18.760Z,1.20
2018-04-26T10:33:44.549Z,1.33
2018-04-26T10:36:10.095Z,1.47
2018-04-26T10:38:36.016Z,1.73
2018-04-26T10:41:01.960Z,1.60
2018-04-26T10:43:27.709Z,1.40
2018-04-26T10:45:53.283Z,1.37
2018-04-26T10:48:19.185Z,1.17
2018-04-26T10:50:44.741Z,1.20
2018-04-26T10:53:10.413Z,1.60
2018-04-26T10:55:36.313Z,1.30
2018-04-26T10:58:01.927Z,1.20
2018-04-26T11:00:27.730Z,1.30
2018-04-26T11:02:53.616Z,1.20
2018-04-26T11:05:19.233Z,1.20
2018-04-26T11:07:45.006Z,1.20
2018-04-26T11:10:10.653Z,1.73
2018-04-26T11:12:36.276Z,1.27
2018-04-26T11:15:02.211Z,1.17
2018-04-26T11:17:27.787Z,1.07
2018-04-26T11:19:53.604Z,1.23
2018-04-26T11:22:19.319Z,1.10
2018-04-26T11:24:44.889Z,1.10
2018-04-26T11:27:10.446Z,3.73
2018-04-26T11:29:36.295Z,2.00
2018-04-26T11:32:01.905Z,2.53
2018-04-26T11:34:27.558Z,1.37
2018-04-26T11:36:53.352Z,2.03
2018-04-26T11:39:18.909Z,1.30
2018-04-26T11:41:44.570Z,1.20
2018-04-26T11:44:10.609Z,1.33
2018-04-26T11:46:36.229Z,1.47
2018-04-26T11:49:01.871Z,1.40
2018-04-26T11:51:27.685Z,1.10
2018-04-26T11:53:53.283Z,1.73
2018-04-26T11:56:18.902Z,1.10
2018-04-26T11:58:44.588Z,1.43
2018-04-26T12:01:10.146Z,1.20
2018-04-26T12:03:35.756Z,1.47
2018-04-26T12:06:01.636Z,1.20
2018-04-26T12:08:27.214Z,1.50
2018-04-26T12:10:52.898Z,0.93
2018-04-26T12:13:19.005Z,1.30
2018-04-26T12:15:44.724Z,1.45
2018-04-26T12:18:10.321Z,1.03
2018-04-26T12:20:36.115Z,1.10
2018-04-26T12:23:01.677Z,0.93
2018-04-26T12:25:27.272Z,1.00
2018-04-26T12:27:53.120Z,1.10
2018-04-26T12:30:18.712Z,0.80
2018-04-26T12:32:44.286Z,0.70
2018-04-26T12:35:10.229Z,0.80
2018-04-26T12:37:35.731Z,1.30
2018-04-26T12:40:01.292Z,0.90
2018-04-26T12:42:27.344Z,0.80
2018-04-26T12:44:53.176Z,1.02
2018-04-26T12:50:47.945Z,1.10
2018-04-26T12:53:13.537Z,0.90
2018-04-26T12:55:39.117Z,0.93
2018-04-26T12:58:04.976Z,1.10
2018-04-26T13:00:30.472Z,0.90
2018-04-26T13:02:56.030Z,0.87
2018-04-26T13:05:22.148Z,0.70
2018-04-26T13:07:47.771Z,0.97
2018-04-26T13:10:13.671Z,0.80
2018-04-26T13:12:39.516Z,0.70
2018-04-26T13:15:05.123Z,0.90
2018-04-26T13:17:30.753Z,0.97
2018-04-26T13:19:57.613Z,0.97
2018-04-26T13:22:23.177Z,1.00
2018-04-26T13:24:48.810Z,0.80
2018-04-26T13:27:14.646Z,0.90
2018-04-26T13:29:40.275Z,0.90
2018-04-26T13:32:05.836Z,1.00
2018-04-26T13:34:31.896Z,0.80
2018-04-26T13:36:57.520Z,0.90
2018-04-26T13:39:24.641Z,1.10
2018-04-26T13:41:50.392Z,0.90
2018-04-26T13:44:16.298Z,1.13
2018-04-26T13:46:41.856Z,1.07
2018-04-26T13:49:07.774Z,0.90
2018-04-26T13:51:33.403Z,1.10
2018-04-26T13:53:59.024Z,1.13
2018-04-26T13:56:24.742Z,1.00
2018-04-26T13:58:50.373Z,0.90
2018-04-26T14:01:16.152Z,1.17
2018-04-26T14:03:41.713Z,0.70
2018-04-26T14:06:08.166Z,0.80
2018-04-26T14:08:33.779Z,0.97
2018-04-26T14:10:59.342Z,0.83
2018-04-26T14:13:25.179Z,0.90
2018-04-26T14:15:50.802Z,0.73
2018-04-26T14:18:16.362Z,1.10
2018-04-26T14:20:42.159Z,0.80
2018-04-26T14:23:07.932Z,0.97
2018-04-26T14:25:33.383Z,1.20
2018-04-26T14:27:59.533Z,1.03
2018-04-26T14:30:25.147Z,0.97
2018-04-26T14:32:50.751Z,0.97
2018-04-26T14:35:16.535Z,0.90
2018-04-26T14:37:42.205Z,0.97
2018-04-26T14:40:07.698Z,0.87
2018-04-26T14:42:33.493Z,0.90
2018-04-26T14:44:59.065Z,0.93
2018-04-26T14:47:24.729Z,1.23
2018-04-26T14:49:50.516Z,0.90
2018-04-26T14:52:16.368Z,0.80
2018-04-26T14:54:41.949Z,0.97
2018-04-26T14:57:07.684Z,0.70
2018-04-26T14:59:33.287Z,1.50
2018-04-26T15:01:58.916Z,1.05
2018-04-26T15:04:24.641Z,0.80
2018-04-26T15:06:50.255Z,0.80
2018-04-26T15:09:15.828Z,0.70
2018-04-26T15:11:41.634Z,1.10
2018-04-26T15:14:07.262Z,0.93
2018-04-26T15:16:32.973Z,1.30
2018-04-26T15:18:58.781Z,0.95
2018-04-26T15:21:24.517Z,0.80
2018-04-26T15:23:50.081Z,0.90
2018-04-26T15:26:15.704Z,1.10
2018-04-26T15:28:41.733Z,1.00
2018-04-26T15:31:07.302Z,0.90
2018-04-26T15:33:32.918Z,0.80
2018-04-26T15:35:58.635Z,0.93
2018-04-26T15:38:24.353Z,0.90
2018-04-26T15:40:49.990Z,1.00
2018-04-26T15:43:16.026Z,1.07
2018-04-26T15:45:41.586Z,1.20
2018-04-26T15:48:07.119Z,0.87
2018-04-26T15:50:36.021Z,0.90
2018-04-26T15:53:39.358Z,0.80
2018-04-26T15:56:55.475Z,0.87
2018-04-26T15:59:58.829Z,0.90
2018-04-26T16:03:04.648Z,1.00
2018-04-26T16:06:01.500Z,0.87
2018-04-26T16:09:04.908Z,0.70
2018-04-26T16:12:07.604Z,0.80
2018-04-26T16:15:10.723Z,1.00
2018-04-26T16:18:33.280Z,0.87
2018-04-26T16:21:36.486Z,1.03
2018-04-26T16:24:55.664Z,1.00
2018-04-26T16:27:58.782Z,1.03
2018-04-26T16:31:20.716Z,0.80
2018-04-26T16:34:23.942Z,1.10
2018-04-26T16:37:46.230Z,1.00
2018-04-26T16:40:11.798Z,1.00
2018-04-26T16:42:37.455Z,0.90
2018-04-26T16:45:03.494Z,1.30
2018-04-26T16:47:29.067Z,1.00
2018-04-26T16:49:54.763Z,1.27
2018-04-26T16:52:20.507Z,2.13
2018-04-26T16:54:46.071Z,0.90
2018-04-26T16:57:11.713Z,0.97
2018-04-26T16:59:37.489Z,1.10
2018-04-26T17:02:03.076Z,1.20
2018-04-26T17:04:28.848Z,1.10
2018-04-26T17:06:54.732Z,0.93
2018-04-26T17:09:20.352Z,1.10
2018-04-26T17:11:45.961Z,0.90
2018-04-26T17:14:12.377Z,1.33
2018-04-26T17:16:39.014Z,1.17
2018-04-26T17:19:04.665Z,1.20
2018-04-26T17:21:30.847Z,1.40
2018-04-26T17:23:56.425Z,1.30
2018-04-26T17:26:22.238Z,1.00
2018-04-26T17:28:48.137Z,1.37
2018-04-26T17:31:13.781Z,1.03
2018-04-26T17:33:39.623Z,0.93
2018-04-26T17:36:05.243Z,1.07
2018-04-26T17:38:30.884Z,1.00
2018-04-26T17:40:56.552Z,1.20
2018-04-26T17:43:22.232Z,1.20
2018-04-26T17:45:48.232Z,1.17
2018-04-26T17:48:13.787Z,1.20
2018-04-26T17:50:39.731Z,1.40
2018-04-26T17:53:05.371Z,1.30
2018-04-26T17:55:31.283Z,1.13
2018-04-26T17:57:56.894Z,1.43
2018-04-26T18:00:22.906Z,1.37
2018-04-26T18:02:48.526Z,1.47
2018-04-26T18:05:14.882Z,1.23
2018-04-26T18:07:40.490Z,1.17
2018-04-26T18:10:06.151Z,1.20
2018-04-26T18:12:32.154Z,1.50
2018-04-26T18:14:58.256Z,1.60
2018-04-26T18:17:23.865Z,1.50
2018-04-26T18:19:49.505Z,1.10
2018-04-26T18:22:15.540Z,1.60
2018-04-26T18:24:41.555Z,1.40
2018-04-26T18:27:07.238Z,1.27
2018-04-26T18:29:33.067Z,1.47
2018-04-26T18:31:58.632Z,1.50
2018-04-26T18:34:24.161Z,1.50
2018-04-26T18:36:49.939Z,1.30
2018-04-26T18:39:15.793Z,1.80
2018-04-26T18:41:41.726Z,1.90
2018-04-26T18:44:07.426Z,2.10
2018-04-26T18:46:32.990Z,1.70
2018-04-26T18:48:59.009Z,1.70
2018-04-26T18:51:24.947Z,1.63
2018-04-26T18:53:50.555Z,1.33
2018-04-26T18:56:16.090Z,1.83
2018-04-26T18:58:42.260Z,1.70
2018-04-26T19:01:08.033Z,1.47
2018-04-26T19:03:33.743Z,1.90
2018-04-26T19:05:59.303Z,1.50
2018-04-26T19:08:25.383Z,2.20
2018-04-26T19:10:50.942Z,2.57
2018-04-26T19:13:16.563Z,1.83
2018-04-26T19:15:42.462Z,1.80
2018-04-26T19:18:08.271Z,1.60
2018-04-26T19:20:33.854Z,1.70
2018-04-26T19:22:59.694Z,1.50
2018-04-26T19:25:25.525Z,1.83
2018-04-26T19:27:51.167Z,1.73
2018-04-26T19:30:16.654Z,1.60
2018-04-26T19:32:42.681Z,2.00
2018-04-26T19:35:08.467Z,1.60
2018-04-26T19:37:34.128Z,1.90
2018-04-26T19:39:59.906Z,2.10
2018-04-26T19:42:25.583Z,2.10
2018-04-26T19:44:51.136Z,1.97
2018-04-26T19:47:16.951Z,1.93
2018-04-26T19:49:42.576Z,1.87
2018-04-26T19:52:08.250Z,2.40
2018-04-26T19:54:34.230Z,2.00
2018-04-26T19:56:59.868Z,2.20
2018-04-26T19:59:25.634Z,2.43
2018-04-26T20:01:51.359Z,2.00
2018-04-26T20:04:17.186Z,2.07
2018-04-26T20:06:42.817Z,2.50
2018-04-26T20:09:09.018Z,2.70
2018-04-26T20:11:34.585Z,2.40
2018-04-26T20:14:02.087Z,2.77
2018-04-26T20:16:28.332Z,2.53
2018-04-26T20:18:55.823Z,1.90
2018-04-26T20:21:21.658Z,2.00
2018-04-26T20:23:47.415Z,1.97
2018-04-26T20:26:13.021Z,2.00
2018-04-26T20:28:38.933Z,2.00
2018-04-26T20:31:05.157Z,2.50
2018-04-26T20:33:30.787Z,2.40
2018-04-26T20:35:56.696Z,1.90
2018-04-26T20:38:22.325Z,2.30
2018-04-26T20:40:47.960Z,2.10
2018-04-26T20:43:13.736Z,2.00
2018-04-26T20:45:39.549Z,2.00
2018-04-26T20:48:05.185Z,2.13
2018-04-26T20:50:30.764Z,1.80
2018-04-26T20:52:56.670Z,1.87
2018-04-26T20:55:22.233Z,2.30
2018-04-26T20:57:48.348Z,2.20
2018-04-26T21:00:14.492Z,1.87
2018-04-26T21:02:40.254Z,2.17
2018-04-26T21:05:05.853Z,2.00
2018-04-26T21:07:31.539Z,1.60
2018-04-26T21:09:58.455Z,2.03
2018-04-26T21:12:24.115Z,2.57
2018-04-26T21:14:49.730Z,2.00
2018-04-26T21:17:15.583Z,2.10
2018-04-26T21:19:41.172Z,2.03
2018-04-26T21:22:06.876Z,2.23
2018-04-26T21:24:32.732Z,2.60
2018-04-26T21:26:58.596Z,2.17
2018-04-26T21:29:24.483Z,2.60
2018-04-26T21:31:50.210Z,1.97
2018-04-26T21:34:15.932Z,1.70
2018-04-26T21:36:41.866Z,1.70
2018-04-26T21:39:07.824Z,1.60
2018-04-26T21:41:33.425Z,1.90
2018-04-26T21:43:59.062Z,2.00
2018-04-26T21:46:24.833Z,1.70
2018-04-26T21:48:50.442Z,2.20
2018-04-26T21:51:34.964Z,1.87
2018-04-26T21:54:19.660Z,2.30
2018-04-26T21:57:04.081Z,2.13
2018-04-26T21:59:48.627Z,1.60
2018-04-26T22:02:23.770Z,1.87
2018-04-26T22:05:04.746Z,1.87
2018-04-26T22:07:30.578Z,2.15
2018-04-26T22:09:56.240Z,2.30
2018-04-26T22:12:21.821Z,2.70
2018-04-26T22:14:47.618Z,2.90
2018-04-26T22:17:13.279Z,2.83
2018-04-26T22:19:38.868Z,2.70
